Time;durP1;ratioP1;P1;durP2;ratioP2;P2;SDS_P1;SDS_P2;PMS_P1;PMS_P2;Temp;Humidity;BMP_temperature;BMP_pressure;BME280_temperature;BME280_humidity;BME280_pressure;Samples;Min_cycle;Max_cycle;Signal;HPM_P1;HPM_P2
2021/11/06 00:02:22;;;;;;;20.83;12.73;;;8.10;99.90;;;;;;5050486;28;20025;-69
2021/11/06 00:04:48;;;;;;;21.48;12.85;;;8.20;99.90;;;;;;5051063;28;20391;-69
2021/11/06 00:07:15;;;;;;;21.33;12.90;;;8.10;99.90;;;;;;5051931;28;20033;-69
2021/11/06 00:09:41;;;;;;;20.58;13.32;;;8.00;99.90;;;;;;5051266;28;20540;-69
2021/11/06 00:12:07;;;;;;;21.88;12.93;;;8.10;99.90;;;;;;5050551;28;20124;-68
2021/11/06 00:14:34;;;;;;;22.42;13.48;;;8.20;99.90;;;;;;5052583;28;20494;-69
2021/11/06 00:17:00;;;;;;;18.83;12.75;;;8.20;99.90;;;;;;5052345;28;20112;-69
2021/11/06 00:19:26;;;;;;;19.35;13.35;;;8.20;99.90;;;;;;5051823;28;20033;-71
2021/11/06 00:21:52;;;;;;;20.60;13.20;;;8.20;99.90;;;;;;5052273;28;20473;-68
2021/11/06 00:24:19;;;;;;;23.92;13.45;;;8.10;99.90;;;;;;5051319;28;20056;-69
2021/11/06 00:26:49;;;;;;;20.55;13.13;;;8.20;99.90;;;;;;5051984;28;20060;-69
2021/11/06 00:29:16;;;;;;;18.60;12.45;;;8.20;99.90;;;;;;5050958;28;20106;-69
2021/11/06 00:31:42;;;;;;;20.27;13.63;;;8.20;99.90;;;;;;5051661;28;20478;-69
2021/11/06 00:34:08;;;;;;;20.98;12.38;;;8.30;99.90;;;;;;5051508;28;20033;-74
2021/11/06 00:36:34;;;;;;;21.25;13.05;;;8.30;99.90;;;;;;5050292;28;20028;-68
2021/11/06 00:38:59;;;;;;;22.65;14.05;;;8.30;99.90;;;;;;5050071;28;20029;-69
2021/11/06 00:41:25;;;;;;;23.85;14.48;;;8.20;99.90;;;;;;5050635;28;20031;-68
2021/11/06 00:43:51;;;;;;;24.63;14.43;;;8.20;99.90;;;;;;5050175;28;20029;-68
2021/11/06 00:46:17;;;;;;;21.20;13.85;;;8.30;99.90;;;;;;5050902;28;20029;-69
2021/11/06 00:48:43;;;;;;;24.45;14.07;;;8.30;99.90;;;;;;5051323;28;20033;-68
2021/11/06 00:51:09;;;;;;;22.17;13.60;;;8.20;99.90;;;;;;5050991;28;20025;-71
2021/11/06 00:53:35;;;;;;;21.83;13.90;;;8.10;99.90;;;;;;5051372;28;20025;-68
2021/11/06 00:56:01;;;;;;;21.48;13.18;;;8.10;99.90;;;;;;5051481;28;20036;-68
2021/11/06 00:58:26;;;;;;;21.70;13.63;;;8.10;99.90;;;;;;5050297;28;20043;-69
2021/11/06 01:00:52;;;;;;;25.05;14.65;;;8.00;99.90;;;;;;5051145;28;20025;-69
2021/11/06 01:03:17;;;;;;;20.50;13.35;;;8.10;99.90;;;;;;5049285;28;20121;-68
2021/11/06 01:05:43;;;;;;;24.17;15.25;;;8.00;99.90;;;;;;5049820;28;20025;-69
2021/11/06 01:08:09;;;;;;;26.42;14.65;;;8.10;99.90;;;;;;5051163;28;20075;-69
2021/11/06 01:10:35;;;;;;;24.27;14.90;;;8.10;99.90;;;;;;5049702;28;20025;-68
2021/11/06 01:13:01;;;;;;;23.38;14.02;;;8.10;99.90;;;;;;5051114;28;20036;-69
2021/11/06 01:15:27;;;;;;;22.13;13.98;;;8.10;99.90;;;;;;5048916;28;20120;-69
2021/11/06 01:17:52;;;;;;;23.52;13.93;;;8.20;99.90;;;;;;5051094;28;20459;-69
2021/11/06 01:20:18;;;;;;;23.77;14.68;;;8.10;99.90;;;;;;5050770;28;20091;-69
2021/11/06 01:22:45;;;;;;;23.58;14.43;;;8.10;99.90;;;;;;5051229;28;20107;-69
2021/11/06 01:25:12;;;;;;;25.40;14.93;;;8.00;99.90;;;;;;5050831;28;20039;-72
2021/11/06 01:27:38;;;;;;;22.75;13.88;;;8.00;99.90;;;;;;5049775;28;20072;-68
2021/11/06 01:30:06;;;;;;;26.13;15.45;;;8.10;99.90;;;;;;5049491;28;20098;-69
2021/11/06 01:32:31;;;;;;;23.48;14.15;;;8.10;99.90;;;;;;5050648;28;20111;-69
2021/11/06 01:34:57;;;;;;;22.98;14.30;;;8.10;99.90;;;;;;5049393;28;20383;-69
2021/11/06 01:37:23;;;;;;;25.25;14.32;;;8.10;99.90;;;;;;5048331;28;20542;-68
2021/11/06 01:39:48;;;;;;;23.27;14.88;;;8.10;99.90;;;;;;5050703;28;20040;-68
2021/11/06 01:42:14;;;;;;;25.77;15.35;;;8.10;99.90;;;;;;5048815;28;20028;-69
2021/11/06 01:44:40;;;;;;;19.52;13.13;;;8.10;99.90;;;;;;5049298;28;20383;-69
2021/11/06 01:47:09;;;;;;;25.30;14.43;;;8.10;99.90;;;;;;5050601;28;20079;-69
2021/11/06 01:49:35;;;;;;;24.45;13.95;;;8.10;99.90;;;;;;5050126;28;20032;-69
2021/11/06 01:52:02;;;;;;;22.80;14.70;;;8.20;99.90;;;;;;5050488;28;20343;-69
2021/11/06 01:54:27;;;;;;;22.60;13.80;;;8.20;99.90;;;;;;5050024;28;20194;-68
2021/11/06 01:56:54;;;;;;;24.15;15.15;;;8.20;99.90;;;;;;5049169;28;20135;-68
2021/11/06 01:59:20;;;;;;;21.23;13.65;;;8.20;99.90;;;;;;5050367;28;20041;-69
2021/11/06 02:01:47;;;;;;;23.92;13.70;;;8.20;99.90;;;;;;5050442;28;20083;-69
2021/11/06 02:04:13;;;;;;;22.88;14.75;;;8.20;99.90;;;;;;5050673;28;20021;-68
2021/11/06 02:06:38;;;;;;;21.80;14.52;;;8.10;99.90;;;;;;5050507;28;20036;-69
2021/11/06 02:09:04;;;;;;;23.95;14.48;;;8.20;99.90;;;;;;5049046;28;20398;-69
2021/11/06 02:11:32;;;;;;;20.85;13.07;;;8.20;99.90;;;;;;5049859;28;20036;-69
2021/11/06 02:13:58;;;;;;;23.00;13.43;;;8.30;99.90;;;;;;5048988;28;20040;-69
2021/11/06 02:16:24;;;;;;;19.58;13.43;;;8.30;99.90;;;;;;5050066;28;20101;-69
2021/11/06 02:18:50;;;;;;;19.35;13.43;;;8.20;99.90;;;;;;5049132;28;20032;-68
2021/11/06 02:21:16;;;;;;;21.95;14.25;;;8.20;99.90;;;;;;5048388;28;20443;-69
2021/11/06 02:23:43;;;;;;;22.20;14.27;;;8.20;99.90;;;;;;5049193;28;20067;-68
2021/11/06 02:26:11;;;;;;;19.67;13.88;;;8.10;99.90;;;;;;5048825;28;20049;-68
2021/11/06 02:28:37;;;;;;;20.00;13.38;;;8.20;99.90;;;;;;5048245;28;20056;-68
2021/11/06 02:31:04;;;;;;;19.70;13.00;;;8.10;99.90;;;;;;5050690;28;20368;-69
2021/11/06 02:33:30;;;;;;;21.67;13.73;;;8.10;99.90;;;;;;5048565;28;20025;-69
2021/11/06 02:35:58;;;;;;;18.77;13.52;;;8.20;99.90;;;;;;5050338;28;20021;-69
2021/11/06 02:38:24;;;;;;;20.23;13.07;;;8.10;99.90;;;;;;5049505;28;20057;-69
2021/11/06 02:40:49;;;;;;;24.38;14.75;;;8.00;99.90;;;;;;5048865;28;20056;-69
2021/11/06 02:43:15;;;;;;;20.85;14.18;;;8.00;99.90;;;;;;5050578;28;20041;-72
2021/11/06 02:45:41;;;;;;;20.90;14.15;;;8.10;99.90;;;;;;5050312;28;20053;-69
2021/11/06 02:48:07;;;;;;;23.30;14.27;;;8.00;99.90;;;;;;5051775;28;20497;-68
2021/11/06 02:50:33;;;;;;;21.88;13.65;;;8.10;99.90;;;;;;5052005;28;20035;-70
2021/11/06 02:52:59;;;;;;;19.85;13.48;;;8.10;99.90;;;;;;5041142;28;20107;-69
2021/11/06 02:55:25;;;;;;;18.20;13.32;;;8.00;99.90;;;;;;5032240;28;20467;-68
2021/11/06 02:57:51;;;;;;;21.48;13.95;;;8.10;99.90;;;;;;5032411;28;20041;-68
2021/11/06 03:00:18;;;;;;;23.65;13.40;;;8.00;99.90;;;;;;5031806;28;20098;-70
2021/11/06 03:02:44;;;;;;;18.95;12.55;;;7.80;99.90;;;;;;5032244;28;20040;-68
2021/11/06 03:05:12;;;;;;;35.42;14.15;;;8.00;99.90;;;;;;5032363;28;20411;-69
2021/11/06 03:07:39;;;;;;;24.52;14.05;;;8.00;99.90;;;;;;5031513;28;20030;-68
2021/11/06 03:10:07;;;;;;;21.60;14.52;;;8.00;99.90;;;;;;5033466;28;20056;-68
2021/11/06 03:12:34;;;;;;;19.42;13.18;;;8.00;99.90;;;;;;5032862;28;20025;-68
2021/11/06 03:15:00;;;;;;;18.98;13.30;;;7.90;99.90;;;;;;5032152;28;20025;-69
2021/11/06 03:17:26;;;;;;;21.73;13.10;;;8.00;99.90;;;;;;5031536;28;20028;-69
2021/11/06 03:19:52;;;;;;;21.38;14.00;;;7.90;99.90;;;;;;5036367;28;20033;-69
2021/11/06 03:22:18;;;;;;;22.42;13.38;;;7.90;99.90;;;;;;5051832;28;20132;-73
2021/11/06 03:24:43;;;;;;;21.73;13.57;;;7.80;99.90;;;;;;5052900;28;20033;-69
2021/11/06 03:27:09;;;;;;;21.55;13.02;;;7.90;99.90;;;;;;5052258;28;20033;-68
2021/11/06 03:29:35;;;;;;;25.40;12.88;;;7.80;99.90;;;;;;5053373;28;20438;-69
2021/11/06 03:32:02;;;;;;;22.38;14.02;;;7.80;99.90;;;;;;5053364;28;20029;-68
2021/11/06 03:34:28;;;;;;;21.05;13.77;;;7.80;99.90;;;;;;5052330;28;20028;-68
2021/11/06 03:36:54;;;;;;;16.83;11.48;;;7.80;99.90;;;;;;5053294;28;20478;-69
2021/11/06 03:39:20;;;;;;;20.90;14.45;;;7.80;99.90;;;;;;5052538;28;20028;-70
2021/11/06 03:41:47;;;;;;;21.58;13.30;;;7.70;99.90;;;;;;5051793;28;20081;-68
2021/11/06 03:44:13;;;;;;;24.65;13.38;;;7.80;99.90;;;;;;5051389;28;20052;-69
2021/11/06 03:46:39;;;;;;;21.73;12.95;;;7.80;99.90;;;;;;5050904;28;20419;-69
2021/11/06 03:49:05;;;;;;;22.95;13.32;;;7.80;99.90;;;;;;5052749;28;20052;-68
2021/11/06 03:51:31;;;;;;;21.52;13.57;;;7.80;99.90;;;;;;5050502;28;20033;-69
2021/11/06 03:53:57;;;;;;;23.88;13.45;;;7.80;99.90;;;;;;5052593;28;20021;-68
2021/11/06 03:56:23;;;;;;;22.77;12.80;;;7.80;99.90;;;;;;5051775;28;20033;-69
2021/11/06 03:58:50;;;;;;;18.90;12.80;;;7.70;99.90;;;;;;5052087;28;20106;-69
2021/11/06 04:01:16;;;;;;;36.30;15.57;;;7.80;99.90;;;;;;5050959;28;20048;-68
2021/11/06 04:03:42;;;;;;;28.55;14.07;;;7.80;99.90;;;;;;5052135;28;20114;-68
2021/11/06 04:06:08;;;;;;;27.20;14.23;;;7.90;99.90;;;;;;5052637;28;20096;-69
2021/11/06 04:08:33;;;;;;;24.48;13.07;;;7.90;99.90;;;;;;5050562;28;20549;-69
2021/11/06 04:10:59;;;;;;;18.52;12.52;;;7.80;99.90;;;;;;5052813;28;20064;-68
2021/11/06 04:13:24;;;;;;;23.67;13.40;;;7.70;99.90;;;;;;5051878;28;20067;-69
2021/11/06 04:15:50;;;;;;;20.67;12.95;;;7.70;99.90;;;;;;5050664;28;20029;-68
2021/11/06 04:18:16;;;;;;;21.55;13.27;;;7.60;99.90;;;;;;5052187;28;20068;-68
2021/11/06 04:20:41;;;;;;;21.52;13.90;;;7.60;99.90;;;;;;5050286;28;20033;-68
2021/11/06 04:23:07;;;;;;;22.75;14.38;;;7.70;99.90;;;;;;5050780;28;20147;-68
2021/11/06 04:25:33;;;;;;;23.00;14.60;;;7.60;99.90;;;;;;5051599;28;20029;-68
2021/11/06 04:27:59;;;;;;;24.83;14.52;;;7.60;99.90;;;;;;5051785;28;20055;-68
2021/11/06 04:30:25;;;;;;;21.70;14.48;;;7.60;99.90;;;;;;5050114;28;20032;-67
2021/11/06 04:32:51;;;;;;;29.88;14.77;;;7.60;99.90;;;;;;5051509;28;20029;-67
2021/11/06 04:35:17;;;;;;;23.42;14.73;;;7.60;99.90;;;;;;5052247;28;20401;-68
2021/11/06 04:37:42;;;;;;;24.48;14.82;;;7.60;99.90;;;;;;5050988;28;20033;-66
2021/11/06 04:40:10;;;;;;;20.27;13.55;;;7.50;99.90;;;;;;5050570;28;20057;-68
2021/11/06 04:42:36;;;;;;;28.25;14.25;;;7.60;99.90;;;;;;5050259;28;20032;-69
2021/11/06 04:45:03;;;;;;;20.05;13.70;;;7.50;99.90;;;;;;5052168;28;20029;-68
2021/11/06 04:47:28;;;;;;;25.10;14.15;;;7.40;99.90;;;;;;5051217;28;20029;-69
2021/11/06 04:49:54;;;;;;;28.58;15.13;;;7.50;99.90;;;;;;5051709;28;20339;-69
2021/11/06 04:52:20;;;;;;;30.90;14.38;;;7.50;99.90;;;;;;5050153;28;20032;-68
2021/11/06 04:54:45;;;;;;;23.33;14.07;;;7.40;99.90;;;;;;5050908;28;20029;-68
2021/11/06 04:57:11;;;;;;;22.45;14.52;;;7.50;99.90;;;;;;5051634;28;20029;-68
2021/11/06 04:59:37;;;;;;;20.58;15.23;;;7.50;99.90;;;;;;5049264;28;20139;-68
2021/11/06 05:02:03;;;;;;;35.90;16.63;;;7.40;99.90;;;;;;5051615;28;20451;-68
2021/11/06 05:04:29;;;;;;;25.80;13.88;;;7.40;99.90;;;;;;5051053;28;20529;-68
2021/11/06 05:06:54;;;;;;;23.67;14.95;;;7.40;99.90;;;;;;5051195;28;20108;-68
2021/11/06 05:09:20;;;;;;;21.98;13.68;;;7.40;99.90;;;;;;5051081;28;20446;-68
2021/11/06 05:11:46;;;;;;;33.60;15.88;;;7.40;99.90;;;;;;5049946;28;20055;-68
2021/11/06 05:14:12;;;;;;;22.05;14.10;;;7.40;99.90;;;;;;5051082;28;20036;-68
2021/11/06 05:16:38;;;;;;;24.63;15.55;;;7.40;99.90;;;;;;5050575;28;20147;-69
2021/11/06 05:19:04;;;;;;;24.77;15.57;;;7.30;99.90;;;;;;5051056;28;20048;-68
2021/11/06 05:21:36;;;;;;;22.30;13.35;;;7.30;99.90;;;;;;5049153;28;20067;-67
2021/11/06 05:24:06;;;;;;;22.52;14.90;;;7.30;99.90;;;;;;5051481;28;20025;-69
2021/11/06 05:26:34;;;;;;;21.35;14.98;;;7.20;99.90;;;;;;5049240;28;20025;-68
2021/11/06 05:29:03;;;;;;;25.40;16.00;;;7.20;99.90;;;;;;5050472;28;20059;-68
2021/11/06 05:31:29;;;;;;;24.17;15.75;;;7.10;99.90;;;;;;5048947;28;20454;-68
2021/11/06 05:33:54;;;;;;;25.98;15.10;;;7.20;99.90;;;;;;5050978;28;20036;-67
2021/11/06 05:36:20;;;;;;;29.83;16.30;;;7.10;99.90;;;;;;5050723;28;20025;-67
2021/11/06 05:38:46;;;;;;;24.23;15.65;;;7.10;99.90;;;;;;5049935;28;20033;-68
2021/11/06 05:41:12;;;;;;;27.58;16.95;;;7.20;99.90;;;;;;5050883;28;20029;-69
2021/11/06 05:43:37;;;;;;;28.77;15.95;;;7.10;99.90;;;;;;5048891;28;20033;-68
2021/11/06 05:46:03;;;;;;;28.58;16.42;;;7.00;99.90;;;;;;5049517;28;20412;-68
2021/11/06 05:48:29;;;;;;;31.45;18.02;;;7.00;99.90;;;;;;5049930;28;20025;-69
2021/11/06 05:50:54;;;;;;;30.77;18.75;;;7.10;99.90;;;;;;5049056;28;20032;-67
2021/11/06 05:53:20;;;;;;;30.33;18.02;;;7.10;99.90;;;;;;5050364;28;20028;-68
2021/11/06 05:55:47;;;;;;;30.15;16.08;;;7.00;99.90;;;;;;5050103;28;20029;-68
2021/11/06 05:58:12;;;;;;;31.13;17.90;;;7.00;99.90;;;;;;5050734;28;20060;-69
2021/11/06 06:00:40;;;;;;;32.45;16.55;;;7.00;99.90;;;;;;5048389;28;20427;-67
2021/11/06 06:03:05;;;;;;;31.35;17.23;;;7.00;99.90;;;;;;5050704;28;20362;-68
2021/11/06 06:05:31;;;;;;;29.73;17.92;;;7.00;99.90;;;;;;5049721;28;20025;-68
2021/11/06 06:07:57;;;;;;;27.13;16.48;;;7.00;99.90;;;;;;5049246;28;20415;-67
2021/11/06 06:10:23;;;;;;;26.38;17.08;;;7.10;99.90;;;;;;5050624;28;20033;-67
2021/11/06 06:12:52;;;;;;;28.55;17.33;;;7.10;99.90;;;;;;5048172;28;20041;-68
2021/11/06 06:15:20;;;;;;;29.52;17.48;;;7.10;99.90;;;;;;5049288;28;20120;-70
2021/11/06 06:17:46;;;;;;;24.75;16.50;;;7.10;99.90;;;;;;5048430;28;20360;-68
2021/11/06 06:20:12;;;;;;;26.98;16.58;;;7.10;99.90;;;;;;5050536;28;20462;-67
2021/11/06 06:22:38;;;;;;;26.98;16.85;;;7.10;99.90;;;;;;5052132;28;20056;-68
2021/11/06 06:25:05;;;;;;;26.23;16.52;;;7.10;99.90;;;;;;5054429;28;20040;-68
2021/11/06 06:27:30;;;;;;;24.10;16.67;;;7.10;99.90;;;;;;5053384;28;20431;-68
2021/11/06 06:29:56;;;;;;;29.77;16.42;;;7.20;99.90;;;;;;5054178;28;20049;-68
2021/11/06 06:32:22;;;;;;;29.15;16.40;;;7.30;99.90;;;;;;5054363;28;20139;-68
2021/11/06 06:34:48;;;;;;;27.45;15.98;;;7.30;99.90;;;;;;5052099;28;20467;-68
2021/11/06 06:37:13;;;;;;;27.33;17.17;;;7.40;99.90;;;;;;5054271;28;20021;-69
2021/11/06 06:39:40;;;;;;;35.55;18.63;;;7.30;99.90;;;;;;5053813;28;20114;-68
2021/11/06 06:42:05;;;;;;;30.00;17.52;;;7.10;99.90;;;;;;5054269;28;20447;-67
2021/11/06 06:44:32;;;;;;;34.40;20.75;;;7.00;99.90;;;;;;5052101;28;20036;-69
2021/11/06 06:46:58;;;;;;;31.75;18.33;;;6.90;99.90;;;;;;5052852;28;20107;-69
2021/11/06 06:49:24;;;;;;;30.33;18.58;;;6.90;99.90;;;;;;5053922;28;20116;-69
2021/11/06 06:51:50;;;;;;;35.35;19.90;;;6.90;99.90;;;;;;5053219;28;20052;-68
2021/11/06 06:54:16;;;;;;;35.05;18.85;;;6.80;99.90;;;;;;5053798;28;20020;-71
2021/11/06 06:56:44;;;;;;;39.30;19.13;;;7.00;99.90;;;;;;5051826;28;20116;-69
2021/11/06 06:59:10;;;;;;;35.78;19.77;;;7.00;99.90;;;;;;5052592;28;20040;-69
2021/11/06 07:01:35;;;;;;;33.45;18.95;;;7.20;99.90;;;;;;5052037;28;20033;-68
2021/11/06 07:04:01;;;;;;;28.92;17.88;;;7.30;99.90;;;;;;5053795;28;20025;-69
2021/11/06 07:06:26;;;;;;;36.00;19.20;;;7.10;99.90;;;;;;5052542;28;20104;-67
2021/11/06 07:08:52;;;;;;;36.60;20.05;;;7.30;99.90;;;;;;5051317;28;20033;-67
2021/11/06 07:11:19;;;;;;;40.35;19.73;;;7.10;99.90;;;;;;5053280;28;20041;-67
2021/11/06 07:13:45;;;;;;;36.47;18.17;;;7.00;99.90;;;;;;5051632;28;20052;-68
2021/11/06 07:16:12;;;;;;;34.22;18.88;;;7.00;99.90;;;;;;5053482;28;20032;-68
2021/11/06 07:18:37;;;;;;;34.40;17.58;;;7.10;99.90;;;;;;5052624;28;20516;-68
2021/11/06 07:21:03;;;;;;;37.08;19.55;;;7.20;99.90;;;;;;5053388;28;20037;-68
2021/11/06 07:23:29;;;;;;;33.53;18.27;;;7.20;99.90;;;;;;5051572;28;20153;-68
2021/11/06 07:26:00;;;;;;;36.75;19.23;;;7.20;99.90;;;;;;5050854;28;20025;-68
2021/11/06 07:28:25;;;;;;;37.50;19.02;;;7.20;99.90;;;;;;5051524;28;20071;-68
2021/11/06 07:30:51;;;;;;;37.83;19.55;;;7.20;99.90;;;;;;5051259;28;20028;-68
2021/11/06 07:33:17;;;;;;;51.55;20.25;;;7.30;99.90;;;;;;5051888;28;20047;-68
2021/11/06 07:35:42;;;;;;;39.38;20.67;;;7.10;99.90;;;;;;5052199;28;20032;-69
2021/11/06 07:38:09;;;;;;;38.42;20.63;;;7.00;99.90;;;;;;5053365;28;20060;-68
2021/11/06 07:40:34;;;;;;;40.85;20.80;;;7.10;99.90;;;;;;5052613;28;20471;-68
2021/11/06 07:43:02;;;;;;;41.28;19.30;;;7.10;99.90;;;;;;5052938;28;20025;-68
2021/11/06 07:45:27;;;;;;;36.63;19.95;;;7.20;99.90;;;;;;5051464;28;20035;-68
2021/11/06 07:47:53;;;;;;;33.33;17.95;;;7.30;99.90;;;;;;5051023;28;20519;-67
2021/11/06 07:50:19;;;;;;;39.67;19.00;;;7.40;99.90;;;;;;5051334;28;20036;-67
2021/11/06 07:52:45;;;;;;;55.15;19.45;;;7.30;99.90;;;;;;5050624;28;20064;-68
2021/11/06 07:55:12;;;;;;;40.30;17.83;;;7.10;99.90;;;;;;5052714;28;20469;-67
2021/11/06 07:57:38;;;;;;;35.53;19.67;;;7.20;99.90;;;;;;5052024;28;20467;-67
2021/11/06 08:00:09;;;;;;;31.48;18.38;;;7.10;99.90;;;;;;5051408;28;20097;-68
2021/11/06 08:02:35;;;;;;;51.13;18.48;;;7.10;99.90;;;;;;5050818;28;20029;-70
2021/11/06 08:05:01;;;;;;;39.13;18.00;;;7.10;99.90;;;;;;5051356;28;20029;-67
2021/11/06 08:07:27;;;;;;;41.50;18.65;;;7.00;99.90;;;;;;5053169;28;20427;-66
2021/11/06 08:09:52;;;;;;;50.90;18.67;;;6.90;99.90;;;;;;5052615;28;20031;-67
2021/11/06 08:12:18;;;;;;;81.75;18.95;;;6.90;99.90;;;;;;5054050;28;20033;-68
2021/11/06 08:14:43;;;;;;;48.55;18.25;;;7.00;99.90;;;;;;5051228;28;20555;-68
2021/11/06 08:17:09;;;;;;;57.72;19.10;;;6.90;99.90;;;;;;5052748;28;20116;-68
2021/11/06 08:19:36;;;;;;;41.65;19.35;;;7.10;99.90;;;;;;5052380;28;20107;-71
2021/11/06 08:22:02;;;;;;;38.30;18.40;;;6.90;99.90;;;;;;5052225;28;20097;-68
2021/11/06 08:24:27;;;;;;;38.22;19.67;;;7.00;99.90;;;;;;5051830;28;20530;-68
2021/11/06 08:26:53;;;;;;;44.60;21.15;;;7.20;99.90;;;;;;5051900;28;20494;-68
2021/11/06 08:29:19;;;;;;;42.97;20.30;;;7.40;99.90;;;;;;5051901;28;20056;-68
2021/11/06 08:31:45;;;;;;;48.50;21.08;;;7.20;99.90;;;;;;5050552;28;20390;-68
2021/11/06 08:34:10;;;;;;;48.60;18.98;;;7.30;99.90;;;;;;5050788;28;20032;-67
2021/11/06 08:36:37;;;;;;;30.65;18.10;;;7.10;99.90;;;;;;5051826;28;20111;-71
2021/11/06 08:39:05;;;;;;;36.50;18.63;;;6.90;99.90;;;;;;5052185;28;20071;-68
2021/11/06 08:41:30;;;;;;;40.85;19.13;;;7.00;99.90;;;;;;5052162;28;20017;-68
2021/11/06 08:43:56;;;;;;;34.38;18.95;;;7.10;99.90;;;;;;5032811;28;20462;-69
2021/11/06 08:46:22;;;;;;;42.67;20.40;;;7.00;99.90;;;;;;5048688;28;20426;-65
2021/11/06 08:48:48;;;;;;;29.02;17.00;;;7.50;99.90;;;;;;5050834;28;20044;-65
2021/11/06 08:51:13;;;;;;;35.60;18.25;;;8.00;99.90;;;;;;5051477;28;20029;-64
2021/11/06 08:53:39;;;;;;;33.22;19.48;;;8.10;99.90;;;;;;5048568;28;20104;-69
2021/11/06 08:56:05;;;;;;;35.47;18.27;;;7.80;99.90;;;;;;5044970;28;20321;-69
2021/11/06 08:58:32;;;;;;;41.50;20.13;;;7.50;99.90;;;;;;5029924;28;20030;-71
2021/11/06 09:00:59;;;;;;;33.58;17.98;;;7.50;99.90;;;;;;5042924;28;20129;-68
2021/11/06 09:03:25;;;;;;;36.25;16.85;;;7.50;99.90;;;;;;5049723;28;20025;-69
2021/11/06 09:05:53;;;;;;;33.65;17.08;;;7.60;99.90;;;;;;5050757;28;20029;-68
2021/11/06 09:08:21;;;;;;;30.88;18.35;;;7.40;99.90;;;;;;5051333;28;20374;-68
2021/11/06 09:10:47;;;;;;;33.53;19.27;;;7.30;99.90;;;;;;5049042;28;20033;-69
2021/11/06 09:13:14;;;;;;;29.05;17.45;;;7.30;99.90;;;;;;5048374;28;20032;-67
2021/11/06 09:15:40;;;;;;;38.15;19.30;;;7.50;99.90;;;;;;5042128;28;20055;-73
2021/11/06 09:18:06;;;;;;;35.05;19.70;;;7.40;99.90;;;;;;5048928;28;20064;-66
2021/11/06 09:20:33;;;;;;;40.15;20.27;;;7.40;99.90;;;;;;5051238;28;20128;-67
2021/11/06 09:22:58;;;;;;;34.78;19.17;;;7.40;99.90;;;;;;5047672;28;20033;-68
2021/11/06 09:25:25;;;;;;;32.40;18.35;;;7.40;99.90;;;;;;5044141;28;20024;-67
2021/11/06 09:27:51;;;;;;;36.88;19.48;;;7.50;99.90;;;;;;5048200;28;20029;-67
2021/11/06 09:30:17;;;;;;;31.70;18.70;;;7.50;99.90;;;;;;5046063;28;20202;-69
2021/11/06 09:32:43;;;;;;;37.05;18.45;;;7.70;99.90;;;;;;5047080;28;20029;-69
2021/11/06 09:35:10;;;;;;;36.08;21.17;;;7.80;99.90;;;;;;5047511;28;20423;-68
2021/11/06 09:37:36;;;;;;;35.63;17.80;;;8.00;99.90;;;;;;5046084;28;20038;-69
2021/11/06 09:40:07;;;;;;;30.48;17.85;;;8.20;99.90;;;;;;5048338;28;20045;-69
2021/11/06 09:42:39;;;;;;;52.50;20.10;;;8.30;99.90;;;;;;5049804;28;20021;-69
2021/11/06 09:45:09;;;;;;;34.60;20.58;;;8.30;99.90;;;;;;5049602;28;20033;-69
2021/11/06 09:47:36;;;;;;;37.10;20.25;;;8.40;99.90;;;;;;5050252;28;20025;-69
2021/11/06 09:50:04;;;;;;;32.90;19.83;;;8.40;99.90;;;;;;5049042;28;20348;-68
2021/11/06 09:52:29;;;;;;;38.08;20.05;;;8.60;99.90;;;;;;5045398;28;20181;-69
2021/11/06 09:54:55;;;;;;;37.42;19.08;;;8.60;99.90;;;;;;5049204;28;20558;-68
2021/11/06 09:57:21;;;;;;;30.33;18.25;;;8.30;99.90;;;;;;5052505;28;20091;-69
2021/11/06 09:59:47;;;;;;;31.92;18.25;;;8.40;99.90;;;;;;5048814;28;20068;-68
2021/11/06 10:02:13;;;;;;;38.35;18.02;;;8.20;99.90;;;;;;5051233;28;20025;-68
2021/11/06 10:04:39;;;;;;;32.25;17.85;;;8.50;99.90;;;;;;5056768;28;20145;-68
2021/11/06 10:07:15;;;;;;;30.00;17.02;;;8.40;99.90;;;;;;5056037;28;20124;-68
2021/11/06 10:09:52;;;;;;;27.42;16.25;;;8.50;99.90;;;;;;5055545;28;20097;-71
2021/11/06 10:12:18;;;;;;;24.75;15.85;;;8.40;99.90;;;;;;5055475;28;20487;-69
2021/11/06 10:14:45;;;;;;;29.52;17.67;;;8.30;99.90;;;;;;5054908;28;20029;-68
2021/11/06 10:17:10;;;;;;;27.73;16.77;;;8.30;99.90;;;;;;5056047;28;20020;-70
2021/11/06 10:19:40;;;;;;;26.27;16.67;;;8.30;99.90;;;;;;5055991;28;20112;-69
2021/11/06 10:22:17;;;;;;;26.92;16.80;;;8.40;99.90;;;;;;5057105;28;20084;-70
2021/11/06 10:24:48;;;;;;;24.30;15.73;;;8.40;99.90;;;;;;5056774;28;20029;-72
2021/11/06 10:27:29;;;;;;;23.55;15.60;;;8.80;99.90;;;;;;5057448;28;20036;-71
2021/11/06 10:30:12;;;;;;;25.40;14.63;;;9.20;99.90;;;;;;5056150;28;20474;-69
2021/11/06 10:32:54;;;;;;;23.42;14.73;;;9.10;99.90;;;;;;5051913;28;20116;-69
2021/11/06 10:35:25;;;;;;;21.00;13.75;;;8.90;99.90;;;;;;5053817;28;20482;-69
2021/11/06 10:38:01;;;;;;;17.83;12.52;;;8.80;99.90;;;;;;5053245;28;20094;-70
2021/11/06 10:40:32;;;;;;;20.88;12.88;;;9.00;99.90;;;;;;5055570;28;20132;-69
2021/11/06 10:43:02;;;;;;;17.85;13.00;;;9.30;99.90;;;;;;5055283;28;20033;-72
2021/11/06 10:45:31;;;;;;;24.90;12.13;;;9.70;99.90;;;;;;5054448;28;20032;-69
2021/11/06 10:48:07;;;;;;;19.05;12.65;;;10.10;99.90;;;;;;5045422;28;20073;-69
2021/11/06 10:50:58;;;;;;;16.10;11.70;;;10.70;99.90;;;;;;5056751;28;20100;-69
2021/11/06 10:53:44;;;;;;;16.67;11.20;;;11.20;99.90;;;;;;5053751;28;20470;-70
2021/11/06 10:56:34;;;;;;;16.60;11.43;;;11.60;99.90;;;;;;5047551;28;20021;-68
2021/11/06 10:59:11;;;;;;;12.55;10.02;;;11.90;99.90;;;;;;5041841;28;20051;-70
2021/11/06 11:01:43;;;;;;;15.40;11.88;;;11.70;99.90;;;;;;5048778;28;20532;-68
2021/11/06 11:04:12;;;;;;;14.75;10.35;;;11.50;99.90;;;;;;5056196;28;20113;-67
2021/11/06 11:06:44;;;;;;;15.05;10.68;;;11.40;99.90;;;;;;5056966;28;20025;-68
2021/11/06 11:09:19;;;;;;;16.52;11.95;;;10.80;99.90;;;;;;5050676;28;20029;-67
2021/11/06 11:11:46;;;;;;;14.15;10.80;;;10.60;99.90;;;;;;5044070;28;20033;-69
2021/11/06 11:14:15;;;;;;;16.65;11.65;;;11.30;99.90;;;;;;5052446;28;20539;-69
2021/11/06 11:17:01;;;;;;;13.93;10.50;;;11.70;99.90;;;;;;5051960;28;20029;-62
2021/11/06 11:19:39;;;;;;;15.73;11.40;;;12.20;99.90;;;;;;5050681;28;20083;-61
2021/11/06 11:22:07;;;;;;;13.73;11.50;;;12.70;99.90;;;;;;5050974;28;20402;-69
2021/11/06 11:24:33;;;;;;;17.27;12.43;;;12.50;99.90;;;;;;5048387;28;20079;-69
2021/11/06 11:26:59;;;;;;;12.55;10.65;;;12.70;99.90;;;;;;5052438;28;20064;-68
2021/11/06 11:29:29;;;;;;;15.85;12.10;;;12.70;99.90;;;;;;5052830;28;20068;-68
2021/11/06 11:31:56;;;;;;;15.10;10.95;;;12.70;99.90;;;;;;5053819;28;20025;-68
2021/11/06 11:34:22;;;;;;;13.93;11.02;;;12.80;99.90;;;;;;5053489;28;20051;-67
2021/11/06 11:36:50;;;;;;;16.30;11.27;;;12.70;99.90;;;;;;5053916;28;20040;-66
2021/11/06 11:39:18;;;;;;;13.27;10.48;;;12.40;99.90;;;;;;5052099;28;20029;-68
2021/11/06 11:42:37;;;;;;;13.88;10.43;;;12.90;99.90;;;;;;5045555;28;20101;-67
2021/11/06 11:45:18;;;;;;;16.45;10.32;;;13.40;99.90;;;;;;5026080;28;20041;-69
2021/11/06 11:47:51;;;;;;;13.93;10.02;;;13.40;99.90;;;;;;5032749;28;20022;-67
2021/11/06 11:50:23;;;;;;;14.32;10.52;;;13.70;99.90;;;;;;5047653;28;20128;-67
2021/11/06 11:52:51;;;;;;;11.63;9.50;;;14.10;99.90;;;;;;5052473;28;20105;-70
2021/11/06 11:55:30;;;;;;;14.85;10.20;;;14.40;99.90;;;;;;5051000;28;20028;-68
2021/11/06 11:58:24;;;;;;;15.77;10.20;;;14.50;99.90;;;;;;5052163;28;20033;-68
2021/11/06 12:01:01;;;;;;;16.52;10.30;;;14.60;99.90;;;;;;5051954;28;20025;-68
2021/11/06 12:03:41;;;;;;;14.40;10.38;;;14.90;99.90;;;;;;5050357;28;20116;-68
2021/11/06 12:06:30;;;;;;;14.88;9.82;;;14.50;99.90;;;;;;5050841;28;20170;-68
2021/11/06 12:09:17;;;;;;;12.02;9.75;;;14.50;99.90;;;;;;5051665;28;20068;-67
2021/11/06 12:12:02;;;;;;;11.80;9.65;;;14.80;99.90;;;;;;5040576;28;20370;-67
2021/11/06 12:14:41;;;;;;;11.73;9.52;;;14.50;99.90;;;;;;5047750;28;20045;-67
2021/11/06 12:17:08;;;;;;;10.95;9.48;;;14.70;99.90;;;;;;5050995;28;20056;-67
2021/11/06 12:19:40;;;;;;;15.45;10.43;;;14.50;99.90;;;;;;5051404;28;20086;-68
2021/11/06 12:22:18;;;;;;;17.73;10.27;;;14.00;99.90;;;;;;5051164;28;20025;-64
2021/11/06 12:24:47;;;;;;;17.83;10.35;;;13.80;99.90;;;;;;5050265;28;20033;-67
2021/11/06 12:27:15;;;;;;;13.52;10.35;;;13.50;99.90;;;;;;5051394;28;20033;-66
2021/11/06 12:29:49;;;;;;;26.27;12.68;;;13.50;99.90;;;;;;5034755;28;20045;-67
2021/11/06 12:32:18;;;;;;;18.13;12.35;;;13.30;99.90;;;;;;5031310;28;20022;-65
2021/11/06 12:34:51;;;;;;;15.50;11.07;;;13.30;99.90;;;;;;5042391;28;20466;-66
2021/11/06 12:37:35;;;;;;;16.20;10.30;;;13.60;99.90;;;;;;5051297;28;20048;-68
2021/11/06 12:40:24;;;;;;;15.98;11.05;;;14.40;99.90;;;;;;5050845;28;20036;-67